sensor_id;sensor_type;location;lat;lon;timestamp;P1;durP1;ratioP1;P2;durP2;ratioP2
12762;SDS011;6445;52.490;13.378;2022-09-27T00:01:43;3.72;;;2.40;;
12762;SDS011;6445;52.490;13.378;2022-09-27T00:04:09;9.32;;;2.40;;
12762;SDS011;6445;52.490;13.378;2022-09-27T00:06:35;3.65;;;1.88;;
12762;SDS011;6445;52.490;13.378;2022-09-27T00:09:01;2.80;;;2.30;;
12762;SDS011;6445;52.490;13.378;2022-09-27T00:11:27;2.20;;;2.00;;
12762;SDS011;6445;52.490;13.378;2022-09-27T00:13:55;3.15;;;2.13;;
12762;SDS011;6445;52.490;13.378;2022-09-27T00:16:21;2.88;;;2.33;;
12762;SDS011;6445;52.490;13.378;2022-09-27T00:18:48;2.92;;;2.17;;
12762;SDS011;6445;52.490;13.378;2022-09-27T00:21:13;3.15;;;2.00;;
12762;SDS011;6445;52.490;13.378;2022-09-27T00:23:39;3.05;;;2.35;;
12762;SDS011;6445;52.490;13.378;2022-09-27T00:26:05;3.10;;;2.30;;
12762;SDS011;6445;52.490;13.378;2022-09-27T00:28:32;2.40;;;2.20;;
12762;SDS011;6445;52.490;13.378;2022-09-27T00:30:58;2.70;;;2.05;;
12762;SDS011;6445;52.490;13.378;2022-09-27T00:33:24;2.92;;;2.17;;
12762;SDS011;6445;52.490;13.378;2022-09-27T00:35:50;3.00;;;2.50;;
12762;SDS011;6445;52.490;13.378;2022-09-27T00:38:16;3.80;;;2.30;;
12762;SDS011;6445;52.490;13.378;2022-09-27T00:40:41;3.92;;;2.15;;
12762;SDS011;6445;52.490;13.378;2022-09-27T00:43:20;5.82;;;2.25;;
12762;SDS011;6445;52.490;13.378;2022-09-27T00:45:57;3.30;;;2.10;;
12762;SDS011;6445;52.490;13.378;2022-09-27T00:48:27;2.50;;;2.10;;
12762;SDS011;6445;52.490;13.378;2022-09-27T00:50:56;2.78;;;2.05;;
12762;SDS011;6445;52.490;13.378;2022-09-27T00:53:32;4.47;;;1.90;;
12762;SDS011;6445;52.490;13.378;2022-09-27T00:56:02;2.25;;;1.73;;
12762;SDS011;6445;52.490;13.378;2022-09-27T00:58:35;1.85;;;1.75;;
12762;SDS011;6445;52.490;13.378;2022-09-27T01:01:04;1.95;;;1.77;;
12762;SDS011;6445;52.490;13.378;2022-09-27T01:03:36;2.90;;;1.90;;
12762;SDS011;6445;52.490;13.378;2022-09-27T01:06:08;2.08;;;1.80;;
12762;SDS011;6445;52.490;13.378;2022-09-27T01:08:34;3.25;;;1.92;;
12762;SDS011;6445;52.490;13.378;2022-09-27T01:11:12;2.63;;;1.92;;
12762;SDS011;6445;52.490;13.378;2022-09-27T01:16:32;2.22;;;1.98;;
12762;SDS011;6445;52.490;13.378;2022-09-27T01:19:32;4.15;;;2.97;;
12762;SDS011;6445;52.490;13.378;2022-09-27T01:22:32;3.28;;;2.05;;
12762;SDS011;6445;52.490;13.378;2022-09-27T01:25:08;2.58;;;2.05;;
12762;SDS011;6445;52.490;13.378;2022-09-27T01:30:27;3.13;;;2.00;;
12762;SDS011;6445;52.490;13.378;2022-09-27T01:35:50;2.38;;;1.88;;
12762;SDS011;6445;52.490;13.378;2022-09-27T01:38:47;3.63;;;1.98;;
12762;SDS011;6445;52.490;13.378;2022-09-27T01:41:30;3.30;;;1.73;;
12762;SDS011;6445;52.490;13.378;2022-09-27T01:44:09;2.72;;;2.20;;
12762;SDS011;6445;52.490;13.378;2022-09-27T01:46:44;2.83;;;2.17;;
12762;SDS011;6445;52.490;13.378;2022-09-27T01:49:15;2.25;;;2.05;;
12762;SDS011;6445;52.490;13.378;2022-09-27T01:51:43;2.70;;;2.15;;
12762;SDS011;6445;52.490;13.378;2022-09-27T01:54:15;2.40;;;1.95;;
12762;SDS011;6445;52.490;13.378;2022-09-27T01:56:47;2.70;;;1.90;;
12762;SDS011;6445;52.490;13.378;2022-09-27T01:59:20;2.30;;;2.00;;
12762;SDS011;6445;52.490;13.378;2022-09-27T02:01:52;4.07;;;2.03;;
12762;SDS011;6445;52.490;13.378;2022-09-27T02:04:22;2.58;;;1.88;;
12762;SDS011;6445;52.490;13.378;2022-09-27T02:06:52;2.63;;;2.00;;
12762;SDS011;6445;52.490;13.378;2022-09-27T02:09:30;3.78;;;1.98;;
12762;SDS011;6445;52.490;13.378;2022-09-27T02:12:01;3.30;;;2.00;;
12762;SDS011;6445;52.490;13.378;2022-09-27T02:14:32;4.80;;;1.70;;
12762;SDS011;6445;52.490;13.378;2022-09-27T02:17:12;3.08;;;1.83;;
12762;SDS011;6445;52.490;13.378;2022-09-27T02:19:43;2.53;;;1.85;;
12762;SDS011;6445;52.490;13.378;2022-09-27T02:22:40;1.60;;;1.50;;
12762;SDS011;6445;52.490;13.378;2022-09-27T02:25:25;1.70;;;1.50;;
12762;SDS011;6445;52.490;13.378;2022-09-27T02:27:57;3.55;;;1.77;;
12762;SDS011;6445;52.490;13.378;2022-09-27T02:30:30;3.08;;;1.60;;
12762;SDS011;6445;52.490;13.378;2022-09-27T02:32:56;3.15;;;1.58;;
12762;SDS011;6445;52.490;13.378;2022-09-27T02:35:22;3.75;;;2.00;;
12762;SDS011;6445;52.490;13.378;2022-09-27T02:37:50;2.85;;;1.75;;
12762;SDS011;6445;52.490;13.378;2022-09-27T02:40:16;2.40;;;1.77;;
12762;SDS011;6445;52.490;13.378;2022-09-27T02:42:41;1.90;;;1.60;;
12762;SDS011;6445;52.490;13.378;2022-09-27T02:45:08;3.97;;;2.00;;
12762;SDS011;6445;52.490;13.378;2022-09-27T02:47:46;2.05;;;1.70;;
12762;SDS011;6445;52.490;13.378;2022-09-27T02:50:47;3.83;;;1.70;;
12762;SDS011;6445;52.490;13.378;2022-09-27T02:53:52;3.15;;;1.45;;
12762;SDS011;6445;52.490;13.378;2022-09-27T03:01:51;2.63;;;1.67;;
12762;SDS011;6445;52.490;13.378;2022-09-27T03:04:33;2.47;;;1.70;;
12762;SDS011;6445;52.490;13.378;2022-09-27T03:07:03;2.35;;;1.67;;
12762;SDS011;6445;52.490;13.378;2022-09-27T03:09:39;2.75;;;1.63;;
12762;SDS011;6445;52.490;13.378;2022-09-27T03:12:13;4.10;;;1.90;;
12762;SDS011;6445;52.490;13.378;2022-09-27T03:14:44;4.07;;;1.98;;
12762;SDS011;6445;52.490;13.378;2022-09-27T03:17:09;2.45;;;1.80;;
12762;SDS011;6445;52.490;13.378;2022-09-27T03:19:35;2.80;;;1.92;;
12762;SDS011;6445;52.490;13.378;2022-09-27T03:22:00;2.53;;;2.00;;
12762;SDS011;6445;52.490;13.378;2022-09-27T03:24:25;5.47;;;2.10;;
12762;SDS011;6445;52.490;13.378;2022-09-27T03:26:51;2.95;;;1.92;;
12762;SDS011;6445;52.490;13.378;2022-09-27T03:29:16;2.83;;;1.85;;
12762;SDS011;6445;52.490;13.378;2022-09-27T03:31:41;2.70;;;2.10;;
12762;SDS011;6445;52.490;13.378;2022-09-27T03:34:06;4.80;;;2.28;;
12762;SDS011;6445;52.490;13.378;2022-09-27T03:36:32;2.63;;;2.20;;
12762;SDS011;6445;52.490;13.378;2022-09-27T03:38:57;2.50;;;2.03;;
12762;SDS011;6445;52.490;13.378;2022-09-27T03:41:22;3.03;;;2.10;;
12762;SDS011;6445;52.490;13.378;2022-09-27T03:43:47;2.60;;;2.00;;
12762;SDS011;6445;52.490;13.378;2022-09-27T03:46:13;2.92;;;2.05;;
12762;SDS011;6445;52.490;13.378;2022-09-27T03:48:38;3.42;;;2.20;;
12762;SDS011;6445;52.490;13.378;2022-09-27T03:51:03;3.13;;;2.13;;
12762;SDS011;6445;52.490;13.378;2022-09-27T03:53:29;2.22;;;1.98;;
12762;SDS011;6445;52.490;13.378;2022-09-27T03:55:54;3.35;;;2.30;;
12762;SDS011;6445;52.490;13.378;2022-09-27T03:58:20;2.72;;;2.40;;
12762;SDS011;6445;52.490;13.378;2022-09-27T04:00:45;3.88;;;2.58;;
12762;SDS011;6445;52.490;13.378;2022-09-27T04:03:10;3.05;;;2.05;;
12762;SDS011;6445;52.490;13.378;2022-09-27T04:05:36;3.92;;;2.45;;
12762;SDS011;6445;52.490;13.378;2022-09-27T04:08:01;2.78;;;2.05;;
12762;SDS011;6445;52.490;13.378;2022-09-27T04:10:27;2.97;;;2.35;;
12762;SDS011;6445;52.490;13.378;2022-09-27T04:12:52;3.63;;;2.30;;
12762;SDS011;6445;52.490;13.378;2022-09-27T04:15:17;3.03;;;2.17;;
12762;SDS011;6445;52.490;13.378;2022-09-27T04:17:43;2.38;;;2.13;;
12762;SDS011;6445;52.490;13.378;2022-09-27T04:20:09;2.72;;;2.45;;
12762;SDS011;6445;52.490;13.378;2022-09-27T04:22:37;2.70;;;2.10;;
12762;SDS011;6445;52.490;13.378;2022-09-27T04:25:05;3.42;;;2.45;;
12762;SDS011;6445;52.490;13.378;2022-09-27T04:27:30;2.28;;;2.08;;
12762;SDS011;6445;52.490;13.378;2022-09-27T04:29:55;4.60;;;2.10;;
12762;SDS011;6445;52.490;13.378;2022-09-27T04:32:21;5.00;;;2.60;;
12762;SDS011;6445;52.490;13.378;2022-09-27T04:34:46;3.08;;;2.17;;
12762;SDS011;6445;52.490;13.378;2022-09-27T04:37:30;3.28;;;2.13;;
12762;SDS011;6445;52.490;13.378;2022-09-27T04:39:55;3.95;;;2.50;;
12762;SDS011;6445;52.490;13.378;2022-09-27T04:42:21;4.25;;;2.40;;
12762;SDS011;6445;52.490;13.378;2022-09-27T04:44:46;3.15;;;2.30;;
12762;SDS011;6445;52.490;13.378;2022-09-27T04:47:11;2.55;;;2.25;;
12762;SDS011;6445;52.490;13.378;2022-09-27T04:49:37;3.55;;;2.65;;
12762;SDS011;6445;52.490;13.378;2022-09-27T04:52:03;2.80;;;2.13;;
12762;SDS011;6445;52.490;13.378;2022-09-27T04:54:29;4.22;;;2.60;;
12762;SDS011;6445;52.490;13.378;2022-09-27T04:56:54;6.82;;;2.45;;
12762;SDS011;6445;52.490;13.378;2022-09-27T04:59:19;4.43;;;2.42;;
12762;SDS011;6445;52.490;13.378;2022-09-27T05:01:45;4.63;;;2.72;;
12762;SDS011;6445;52.490;13.378;2022-09-27T05:04:10;2.95;;;2.40;;
12762;SDS011;6445;52.490;13.378;2022-09-27T05:06:36;4.70;;;2.63;;
12762;SDS011;6445;52.490;13.378;2022-09-27T05:09:01;3.55;;;2.40;;
12762;SDS011;6445;52.490;13.378;2022-09-27T05:11:27;5.65;;;2.80;;
12762;SDS011;6445;52.490;13.378;2022-09-27T05:13:52;4.30;;;2.40;;
12762;SDS011;6445;52.490;13.378;2022-09-27T05:16:17;4.68;;;2.72;;
12762;SDS011;6445;52.490;13.378;2022-09-27T05:18:43;4.25;;;2.47;;
12762;SDS011;6445;52.490;13.378;2022-09-27T05:21:09;3.90;;;2.92;;
12762;SDS011;6445;52.490;13.378;2022-09-27T05:23:34;3.15;;;2.65;;
12762;SDS011;6445;52.490;13.378;2022-09-27T05:26:05;3.10;;;2.80;;
12762;SDS011;6445;52.490;13.378;2022-09-27T05:28:31;4.20;;;3.10;;
12762;SDS011;6445;52.490;13.378;2022-09-27T05:30:59;3.75;;;2.88;;
12762;SDS011;6445;52.490;13.378;2022-09-27T05:33:24;3.97;;;3.03;;
12762;SDS011;6445;52.490;13.378;2022-09-27T05:35:52;3.20;;;2.90;;
12762;SDS011;6445;52.490;13.378;2022-09-27T05:38:19;4.30;;;3.42;;
12762;SDS011;6445;52.490;13.378;2022-09-27T05:40:44;4.72;;;3.10;;
12762;SDS011;6445;52.490;13.378;2022-09-27T05:43:11;8.65;;;4.82;;
12762;SDS011;6445;52.490;13.378;2022-09-27T05:45:37;18.02;;;12.68;;
12762;SDS011;6445;52.490;13.378;2022-09-27T05:48:02;8.18;;;6.07;;
12762;SDS011;6445;52.490;13.378;2022-09-27T05:50:29;5.97;;;4.80;;
12762;SDS011;6445;52.490;13.378;2022-09-27T05:52:54;4.05;;;3.45;;
12762;SDS011;6445;52.490;13.378;2022-09-27T05:55:19;3.42;;;2.92;;
12762;SDS011;6445;52.490;13.378;2022-09-27T05:57:55;3.70;;;3.03;;
12762;SDS011;6445;52.490;13.378;2022-09-27T06:00:25;8.95;;;3.63;;
12762;SDS011;6445;52.490;13.378;2022-09-27T06:02:52;3.90;;;3.03;;
12762;SDS011;6445;52.490;13.378;2022-09-27T06:05:23;4.47;;;3.33;;
12762;SDS011;6445;52.490;13.378;2022-09-27T06:07:49;4.25;;;3.00;;
12762;SDS011;6445;52.490;13.378;2022-09-27T06:10:16;3.45;;;2.92;;
12762;SDS011;6445;52.490;13.378;2022-09-27T06:12:42;4.00;;;3.05;;
12762;SDS011;6445;52.490;13.378;2022-09-27T06:15:07;6.25;;;3.30;;
12762;SDS011;6445;52.490;13.378;2022-09-27T06:17:33;4.40;;;3.30;;
12762;SDS011;6445;52.490;13.378;2022-09-27T06:19:59;4.43;;;3.40;;
12762;SDS011;6445;52.490;13.378;2022-09-27T06:22:25;6.85;;;3.00;;
12762;SDS011;6445;52.490;13.378;2022-09-27T06:24:50;6.10;;;3.55;;
12762;SDS011;6445;52.490;13.378;2022-09-27T06:27:15;6.05;;;2.80;;
12762;SDS011;6445;52.490;13.378;2022-09-27T06:29:42;6.65;;;3.30;;
12762;SDS011;6445;52.490;13.378;2022-09-27T06:32:07;5.07;;;3.20;;
12762;SDS011;6445;52.490;13.378;2022-09-27T06:34:33;7.63;;;3.40;;
12762;SDS011;6445;52.490;13.378;2022-09-27T06:36:58;4.63;;;3.10;;
12762;SDS011;6445;52.490;13.378;2022-09-27T06:39:23;5.53;;;3.15;;
12762;SDS011;6445;52.490;13.378;2022-09-27T06:41:51;4.68;;;3.30;;
12762;SDS011;6445;52.490;13.378;2022-09-27T06:44:20;4.97;;;3.53;;
12762;SDS011;6445;52.490;13.378;2022-09-27T06:46:45;4.05;;;3.17;;
12762;SDS011;6445;52.490;13.378;2022-09-27T06:49:10;5.85;;;3.60;;
12762;SDS011;6445;52.490;13.378;2022-09-27T06:51:35;5.38;;;3.33;;
12762;SDS011;6445;52.490;13.378;2022-09-27T06:54:01;4.25;;;3.30;;
12762;SDS011;6445;52.490;13.378;2022-09-27T06:56:26;4.70;;;2.85;;
12762;SDS011;6445;52.490;13.378;2022-09-27T06:58:51;4.45;;;3.20;;
12762;SDS011;6445;52.490;13.378;2022-09-27T07:01:35;3.95;;;3.20;;
12762;SDS011;6445;52.490;13.378;2022-09-27T07:04:00;4.00;;;3.35;;
12762;SDS011;6445;52.490;13.378;2022-09-27T07:06:26;4.40;;;3.35;;
12762;SDS011;6445;52.490;13.378;2022-09-27T07:08:51;4.10;;;3.40;;
12762;SDS011;6445;52.490;13.378;2022-09-27T07:11:17;4.25;;;3.30;;
12762;SDS011;6445;52.490;13.378;2022-09-27T07:13:43;5.72;;;3.53;;
12762;SDS011;6445;52.490;13.378;2022-09-27T07:16:12;5.15;;;3.78;;
12762;SDS011;6445;52.490;13.378;2022-09-27T07:18:39;5.38;;;3.80;;
12762;SDS011;6445;52.490;13.378;2022-09-27T07:21:05;5.22;;;3.67;;
12762;SDS011;6445;52.490;13.378;2022-09-27T07:23:30;7.45;;;3.97;;
12762;SDS011;6445;52.490;13.378;2022-09-27T07:25:55;4.57;;;3.42;;
12762;SDS011;6445;52.490;13.378;2022-09-27T07:28:21;6.15;;;3.70;;
12762;SDS011;6445;52.490;13.378;2022-09-27T07:30:46;5.95;;;3.50;;
12762;SDS011;6445;52.490;13.378;2022-09-27T07:33:11;4.15;;;3.35;;
12762;SDS011;6445;52.490;13.378;2022-09-27T07:35:40;4.55;;;3.40;;
12762;SDS011;6445;52.490;13.378;2022-09-27T07:38:07;5.43;;;3.45;;
12762;SDS011;6445;52.490;13.378;2022-09-27T07:40:37;4.38;;;3.30;;
12762;SDS011;6445;52.490;13.378;2022-09-27T07:43:03;5.60;;;3.13;;
12762;SDS011;6445;52.490;13.378;2022-09-27T07:45:29;4.68;;;3.85;;
12762;SDS011;6445;52.490;13.378;2022-09-27T07:47:55;4.72;;;3.35;;
12762;SDS011;6445;52.490;13.378;2022-09-27T07:50:20;5.35;;;3.40;;
12762;SDS011;6445;52.490;13.378;2022-09-27T07:52:46;4.30;;;3.65;;
12762;SDS011;6445;52.490;13.378;2022-09-27T07:55:15;4.22;;;3.10;;
12762;SDS011;6445;52.490;13.378;2022-09-27T07:57:41;4.38;;;3.88;;
12762;SDS011;6445;52.490;13.378;2022-09-27T08:00:09;4.63;;;3.78;;
12762;SDS011;6445;52.490;13.378;2022-09-27T08:02:37;4.25;;;3.28;;
12762;SDS011;6445;52.490;13.378;2022-09-27T08:05:02;5.18;;;3.40;;
12762;SDS011;6445;52.490;13.378;2022-09-27T08:07:28;8.38;;;3.50;;
12762;SDS011;6445;52.490;13.378;2022-09-27T08:09:54;4.22;;;3.40;;
12762;SDS011;6445;52.490;13.378;2022-09-27T08:12:19;5.07;;;3.58;;
12762;SDS011;6445;52.490;13.378;2022-09-27T08:14:46;3.72;;;3.33;;
12762;SDS011;6445;52.490;13.378;2022-09-27T08:17:12;5.32;;;3.42;;
12762;SDS011;6445;52.490;13.378;2022-09-27T08:19:38;7.10;;;3.40;;
12762;SDS011;6445;52.490;13.378;2022-09-27T08:22:04;3.90;;;3.50;;
12762;SDS011;6445;52.490;13.378;2022-09-27T08:24:30;5.70;;;3.42;;
12762;SDS011;6445;52.490;13.378;2022-09-27T08:26:56;5.05;;;3.47;;
12762;SDS011;6445;52.490;13.378;2022-09-27T08:29:21;3.53;;;3.05;;
12762;SDS011;6445;52.490;13.378;2022-09-27T08:31:49;6.50;;;3.30;;
12762;SDS011;6445;52.490;13.378;2022-09-27T08:34:15;3.78;;;3.35;;
12762;SDS011;6445;52.490;13.378;2022-09-27T08:36:41;6.55;;;3.78;;
12762;SDS011;6445;52.490;13.378;2022-09-27T08:39:07;5.05;;;3.72;;
12762;SDS011;6445;52.490;13.378;2022-09-27T08:41:34;4.85;;;3.30;;
12762;SDS011;6445;52.490;13.378;2022-09-27T08:44:17;3.50;;;3.20;;
12762;SDS011;6445;52.490;13.378;2022-09-27T08:46:57;4.60;;;3.38;;
12762;SDS011;6445;52.490;13.378;2022-09-27T08:49:38;5.55;;;3.08;;
12762;SDS011;6445;52.490;13.378;2022-09-27T08:52:13;6.32;;;3.20;;
12762;SDS011;6445;52.490;13.378;2022-09-27T08:54:44;3.50;;;3.05;;
12762;SDS011;6445;52.490;13.378;2022-09-27T08:57:11;3.67;;;2.92;;
12762;SDS011;6445;52.490;13.378;2022-09-27T09:02:34;4.20;;;3.30;;
12762;SDS011;6445;52.490;13.378;2022-09-27T09:05:07;3.63;;;3.15;;
12762;SDS011;6445;52.490;13.378;2022-09-27T09:07:41;4.75;;;3.28;;
12762;SDS011;6445;52.490;13.378;2022-09-27T09:10:28;4.40;;;3.60;;
12762;SDS011;6445;52.490;13.378;2022-09-27T09:15:53;3.50;;;3.00;;
12762;SDS011;6445;52.490;13.378;2022-09-27T09:29:47;3.80;;;3.40;;
12762;SDS011;6445;52.490;13.378;2022-09-27T09:35:05;3.67;;;3.30;;
12762;SDS011;6445;52.490;13.378;2022-09-27T09:37:36;3.58;;;3.28;;
12762;SDS011;6445;52.490;13.378;2022-09-27T09:42:51;4.50;;;3.35;;
12762;SDS011;6445;52.490;13.378;2022-09-27T09:45:27;3.63;;;3.30;;
12762;SDS011;6445;52.490;13.378;2022-09-27T09:48:03;3.67;;;3.28;;
12762;SDS011;6445;52.490;13.378;2022-09-27T09:50:39;4.25;;;3.35;;
12762;SDS011;6445;52.490;13.378;2022-09-27T09:53:15;3.40;;;3.10;;
12762;SDS011;6445;52.490;13.378;2022-09-27T09:55:45;3.95;;;3.55;;
12762;SDS011;6445;52.490;13.378;2022-09-27T09:58:20;4.32;;;3.97;;
12762;SDS011;6445;52.490;13.378;2022-09-27T10:00:48;3.70;;;3.40;;
12762;SDS011;6445;52.490;13.378;2022-09-27T10:03:17;4.53;;;4.00;;
12762;SDS011;6445;52.490;13.378;2022-09-27T10:05:43;5.32;;;3.30;;
12762;SDS011;6445;52.490;13.378;2022-09-27T10:08:12;4.15;;;3.75;;
12762;SDS011;6445;52.490;13.378;2022-09-27T10:10:42;3.85;;;3.55;;
12762;SDS011;6445;52.490;13.378;2022-09-27T10:13:09;3.92;;;3.63;;
12762;SDS011;6445;52.490;13.378;2022-09-27T10:15:40;3.72;;;3.42;;
12762;SDS011;6445;52.490;13.378;2022-09-27T10:18:08;3.35;;;3.05;;
12762;SDS011;6445;52.490;13.378;2022-09-27T10:20:43;3.72;;;2.92;;
12762;SDS011;6445;52.490;13.378;2022-09-27T10:23:15;3.25;;;2.90;;
12762;SDS011;6445;52.490;13.378;2022-09-27T10:25:49;3.50;;;3.20;;
12762;SDS011;6445;52.490;13.378;2022-09-27T10:28:25;3.80;;;3.08;;
12762;SDS011;6445;52.490;13.378;2022-09-27T10:30:56;3.40;;;3.10;;
12762;SDS011;6445;52.490;13.378;2022-09-27T10:33:24;3.47;;;3.17;;
12762;SDS011;6445;52.490;13.378;2022-09-27T10:35:50;3.95;;;3.50;;
12762;SDS011;6445;52.490;13.378;2022-09-27T10:38:20;3.28;;;2.97;;
12762;SDS011;6445;52.490;13.378;2022-09-27T10:40:48;3.42;;;3.10;;
12762;SDS011;6445;52.490;13.378;2022-09-27T10:43:26;3.55;;;3.20;;
12762;SDS011;6445;52.490;13.378;2022-09-27T10:49:09;5.60;;;2.97;;
12762;SDS011;6445;52.490;13.378;2022-09-27T10:51:48;3.70;;;2.97;;
12762;SDS011;6445;52.490;13.378;2022-09-27T10:56:45;4.50;;;2.78;;
12762;SDS011;6445;52.490;13.378;2022-09-27T10:59:20;3.20;;;2.90;;
12762;SDS011;6445;52.490;13.378;2022-09-27T11:01:45;5.07;;;2.97;;
12762;SDS011;6445;52.490;13.378;2022-09-27T11:04:16;3.75;;;2.75;;
12762;SDS011;6445;52.490;13.378;2022-09-27T11:07:07;3.08;;;2.67;;
12762;SDS011;6445;52.490;13.378;2022-09-27T11:10:18;3.10;;;2.58;;
12762;SDS011;6445;52.490;13.378;2022-09-27T11:12:46;4.75;;;2.80;;
12762;SDS011;6445;52.490;13.378;2022-09-27T11:15:49;6.18;;;2.90;;
12762;SDS011;6445;52.490;13.378;2022-09-27T11:18:30;3.30;;;2.97;;
12762;SDS011;6445;52.490;13.378;2022-09-27T11:21:21;3.63;;;2.83;;
12762;SDS011;6445;52.490;13.378;2022-09-27T11:24:11;5.65;;;3.33;;
12762;SDS011;6445;52.490;13.378;2022-09-27T11:27:03;3.78;;;3.47;;
12762;SDS011;6445;52.490;13.378;2022-09-27T11:30:03;5.05;;;3.40;;
12762;SDS011;6445;52.490;13.378;2022-09-27T11:32:38;3.25;;;3.03;;
12762;SDS011;6445;52.490;13.378;2022-09-27T11:38:19;5.28;;;3.50;;
12762;SDS011;6445;52.490;13.378;2022-09-27T11:44:09;4.03;;;3.70;;
12762;SDS011;6445;52.490;13.378;2022-09-27T11:52:46;4.18;;;2.20;;
12762;SDS011;6445;52.490;13.378;2022-09-27T11:58:35;4.22;;;1.90;;
12762;SDS011;6445;52.490;13.378;2022-09-27T12:09:39;7.85;;;1.80;;
12762;SDS011;6445;52.490;13.378;2022-09-27T12:12:13;2.90;;;1.90;;
12762;SDS011;6445;52.490;13.378;2022-09-27T12:14:44;4.47;;;2.08;;
12762;SDS011;6445;52.490;13.378;2022-09-27T12:17:14;3.88;;;2.05;;
12762;SDS011;6445;52.490;13.378;2022-09-27T12:19:46;3.28;;;2.38;;
12762;SDS011;6445;52.490;13.378;2022-09-27T12:22:17;8.40;;;2.50;;
12762;SDS011;6445;52.490;13.378;2022-09-27T12:24:48;3.50;;;2.60;;
12762;SDS011;6445;52.490;13.378;2022-09-27T12:27:24;4.13;;;2.40;;
12762;SDS011;6445;52.490;13.378;2022-09-27T12:29:59;6.05;;;2.45;;
12762;SDS011;6445;52.490;13.378;2022-09-27T12:32:33;3.47;;;2.30;;
12762;SDS011;6445;52.490;13.378;2022-09-27T12:37:41;3.97;;;2.78;;
12762;SDS011;6445;52.490;13.378;2022-09-27T12:40:20;5.40;;;2.95;;
12762;SDS011;6445;52.490;13.378;2022-09-27T12:42:54;3.10;;;2.60;;
12762;SDS011;6445;52.490;13.378;2022-09-27T12:45:35;2.60;;;2.20;;
12762;SDS011;6445;52.490;13.378;2022-09-27T12:48:07;4.43;;;2.70;;
12762;SDS011;6445;52.490;13.378;2022-09-27T12:50:35;3.25;;;2.60;;
12762;SDS011;6445;52.490;13.378;2022-09-27T12:56:31;3.30;;;2.78;;
12762;SDS011;6445;52.490;13.378;2022-09-27T12:59:14;3.97;;;2.67;;
12762;SDS011;6445;52.490;13.378;2022-09-27T13:13:56;2.85;;;2.20;;
12762;SDS011;6445;52.490;13.378;2022-09-27T13:16:26;2.55;;;2.20;;
12762;SDS011;6445;52.490;13.378;2022-09-27T13:18:53;2.63;;;2.42;;
12762;SDS011;6445;52.490;13.378;2022-09-27T13:27:27;3.80;;;2.85;;
12762;SDS011;6445;52.490;13.378;2022-09-27T13:32:33;2.85;;;2.25;;
12762;SDS011;6445;52.490;13.378;2022-09-27T13:37:56;3.03;;;2.50;;
12762;SDS011;6445;52.490;13.378;2022-09-27T13:40:31;5.30;;;3.30;;
12762;SDS011;6445;52.490;13.378;2022-09-27T13:45:52;2.97;;;2.40;;
12762;SDS011;6445;52.490;13.378;2022-09-27T13:51:03;3.58;;;2.50;;
12762;SDS011;6445;52.490;13.378;2022-09-27T13:53:40;3.40;;;2.65;;
12762;SDS011;6445;52.490;13.378;2022-09-27T13:56:46;3.22;;;2.22;;
12762;SDS011;6445;52.490;13.378;2022-09-27T13:59:15;2.67;;;2.42;;
12762;SDS011;6445;52.490;13.378;2022-09-27T14:01:46;3.08;;;2.60;;
12762;SDS011;6445;52.490;13.378;2022-09-27T14:04:18;3.13;;;2.30;;
12762;SDS011;6445;52.490;13.378;2022-09-27T14:06:53;3.20;;;2.33;;
12762;SDS011;6445;52.490;13.378;2022-09-27T14:09:26;3.00;;;2.22;;
12762;SDS011;6445;52.490;13.378;2022-09-27T14:11:57;3.28;;;2.38;;
12762;SDS011;6445;52.490;13.378;2022-09-27T14:14:26;3.75;;;2.40;;
12762;SDS011;6445;52.490;13.378;2022-09-27T14:16:53;3.63;;;2.50;;
12762;SDS011;6445;52.490;13.378;2022-09-27T14:19:21;3.22;;;2.40;;
12762;SDS011;6445;52.490;13.378;2022-09-27T14:21:49;4.00;;;2.42;;
12762;SDS011;6445;52.490;13.378;2022-09-27T14:27:03;1.70;;;1.60;;
12762;SDS011;6445;52.490;13.378;2022-09-27T14:32:47;1.98;;;1.77;;
12762;SDS011;6445;52.490;13.378;2022-09-27T14:38:00;2.28;;;1.48;;
12762;SDS011;6445;52.490;13.378;2022-09-27T14:40:27;3.28;;;2.00;;
12762;SDS011;6445;52.490;13.378;2022-09-27T14:42:59;2.72;;;1.80;;
12762;SDS011;6445;52.490;13.378;2022-09-27T14:45:30;3.60;;;2.05;;
12762;SDS011;6445;52.490;13.378;2022-09-27T14:48:00;3.80;;;1.80;;
12762;SDS011;6445;52.490;13.378;2022-09-27T14:50:30;3.42;;;2.38;;
12762;SDS011;6445;52.490;13.378;2022-09-27T14:52:56;3.35;;;2.10;;
12762;SDS011;6445;52.490;13.378;2022-09-27T14:55:24;4.35;;;2.25;;
12762;SDS011;6445;52.490;13.378;2022-09-27T14:57:56;3.45;;;2.10;;
12762;SDS011;6445;52.490;13.378;2022-09-27T15:00:24;2.88;;;2.00;;
12762;SDS011;6445;52.490;13.378;2022-09-27T15:02:59;2.50;;;2.30;;
12762;SDS011;6445;52.490;13.378;2022-09-27T15:05:28;2.78;;;2.58;;
12762;SDS011;6445;52.490;13.378;2022-09-27T15:07:56;3.22;;;2.50;;
12762;SDS011;6445;52.490;13.378;2022-09-27T15:10:25;2.55;;;2.35;;
12762;SDS011;6445;52.490;13.378;2022-09-27T15:12:55;3.60;;;2.92;;
12762;SDS011;6445;52.490;13.378;2022-09-27T15:15:32;4.18;;;3.20;;
12762;SDS011;6445;52.490;13.378;2022-09-27T15:17:59;4.25;;;3.00;;
12762;SDS011;6445;52.490;13.378;2022-09-27T15:20:29;4.95;;;2.83;;
12762;SDS011;6445;52.490;13.378;2022-09-27T15:22:57;4.68;;;2.88;;
12762;SDS011;6445;52.490;13.378;2022-09-27T15:25:28;4.70;;;3.35;;
12762;SDS011;6445;52.490;13.378;2022-09-27T15:28:02;3.80;;;3.40;;
12762;SDS011;6445;52.490;13.378;2022-09-27T15:30:37;3.65;;;3.08;;
12762;SDS011;6445;52.490;13.378;2022-09-27T15:33:06;4.82;;;3.45;;
12762;SDS011;6445;52.490;13.378;2022-09-27T15:35:45;3.50;;;2.95;;
12762;SDS011;6445;52.490;13.378;2022-09-27T15:38:29;5.80;;;3.35;;
12762;SDS011;6445;52.490;13.378;2022-09-27T15:41:01;3.75;;;3.30;;
12762;SDS011;6445;52.490;13.378;2022-09-27T15:43:39;3.85;;;3.40;;
12762;SDS011;6445;52.490;13.378;2022-09-27T15:49:32;8.40;;;3.63;;
12762;SDS011;6445;52.490;13.378;2022-09-27T15:51:41;5.75;;;3.40;;
12762;SDS011;6445;52.490;13.378;2022-09-27T15:54:07;5.80;;;3.42;;
12762;SDS011;6445;52.490;13.378;2022-09-27T15:56:32;5.95;;;3.72;;
12762;SDS011;6445;52.490;13.378;2022-09-27T15:58:59;6.50;;;3.20;;
12762;SDS011;6445;52.490;13.378;2022-09-27T16:01:24;5.45;;;3.15;;
12762;SDS011;6445;52.490;13.378;2022-09-27T16:03:49;3.80;;;2.90;;
12762;SDS011;6445;52.490;13.378;2022-09-27T16:06:15;4.90;;;2.60;;
12762;SDS011;6445;52.490;13.378;2022-09-27T16:08:40;2.33;;;2.10;;
12762;SDS011;6445;52.490;13.378;2022-09-27T16:11:08;2.15;;;1.67;;
12762;SDS011;6445;52.490;13.378;2022-09-27T16:13:37;2.83;;;2.30;;
12762;SDS011;6445;52.490;13.378;2022-09-27T16:16:02;2.97;;;2.20;;
12762;SDS011;6445;52.490;13.378;2022-09-27T16:18:28;2.67;;;1.80;;
12762;SDS011;6445;52.490;13.378;2022-09-27T16:20:53;4.47;;;2.30;;
12762;SDS011;6445;52.490;13.378;2022-09-27T16:23:18;2.55;;;2.08;;
12762;SDS011;6445;52.490;13.378;2022-09-27T16:25:44;2.08;;;1.80;;
12762;SDS011;6445;52.490;13.378;2022-09-27T16:28:10;3.50;;;1.98;;
12762;SDS011;6445;52.490;13.378;2022-09-27T16:30:35;2.67;;;1.80;;
12762;SDS011;6445;52.490;13.378;2022-09-27T16:33:00;2.88;;;2.10;;
12762;SDS011;6445;52.490;13.378;2022-09-27T16:35:27;5.18;;;2.20;;
12762;SDS011;6445;52.490;13.378;2022-09-27T16:37:52;3.97;;;2.20;;
12762;SDS011;6445;52.490;13.378;2022-09-27T16:40:17;3.40;;;2.20;;
12762;SDS011;6445;52.490;13.378;2022-09-27T16:42:43;3.22;;;2.50;;
12762;SDS011;6445;52.490;13.378;2022-09-27T16:45:11;3.25;;;2.67;;
12762;SDS011;6445;52.490;13.378;2022-09-27T16:47:37;4.50;;;2.80;;
12762;SDS011;6445;52.490;13.378;2022-09-27T16:50:03;6.18;;;3.00;;
12762;SDS011;6445;52.490;13.378;2022-09-27T16:52:47;3.25;;;2.72;;
12762;SDS011;6445;52.490;13.378;2022-09-27T16:55:14;4.53;;;2.60;;
12762;SDS011;6445;52.490;13.378;2022-09-27T16:57:45;3.17;;;2.30;;
12762;SDS011;6445;52.490;13.378;2022-09-27T17:00:11;3.92;;;3.25;;